Time;durP1;ratioP1;P1;durP2;ratioP2;P2;SDS_P1;SDS_P2;PMS_P1;PMS_P2;Temp;Humidity;BMP_temperature;BMP_pressure;BME280_temperature;BME280_humidity;BME280_pressure;Samples;Min_cycle;Max_cycle;Signal;HPM_P1;HPM_P2
2022/11/09 00:00:49;;;;;;;6.47;1.77;;;;;;;17.67;54.21;100452.00;4960822;28;123206;-66
2022/11/09 00:03:16;;;;;;;7.68;2.30;;;;;;;17.66;54.29;100447.63;4954012;28;123660;-66
2022/11/09 00:05:53;;;;;;;5.13;1.60;;;;;;;17.64;54.28;100446.06;4954315;28;119808;-65
2022/11/09 00:08:20;;;;;;;6.68;1.65;;;;;;;17.63;54.11;100455.91;4948088;28;119192;-66
2022/11/09 00:10:48;;;;;;;3.42;1.40;;;;;;;17.62;54.26;100451.53;4949469;28;123858;-65
2022/11/09 00:13:15;;;;;;;4.22;1.40;;;;;;;17.61;54.35;100446.28;4953156;28;124139;-66
2022/11/09 00:15:42;;;;;;;4.65;1.70;;;;;;;17.60;54.30;100434.75;4951957;28;119284;-66
2022/11/09 00:18:09;;;;;;;3.40;1.50;;;;;;;17.60;54.34;100434.75;4959959;28;118826;-66
2022/11/09 00:20:36;;;;;;;3.50;1.60;;;;;;;17.61;54.43;100444.50;4963126;28;124088;-66
2022/11/09 00:23:03;;;;;;;5.70;1.40;;;;;;;17.59;54.29;100451.75;4958731;28;123816;-66
2022/11/09 00:25:30;;;;;;;5.15;1.60;;;;;;;17.58;54.44;100442.03;4953346;28;120166;-65
2022/11/09 00:27:57;;;;;;;5.38;1.58;;;;;;;17.58;54.50;100450.09;4955939;28;120189;-66
2022/11/09 00:30:26;;;;;;;3.90;1.45;;;;;;;17.58;54.58;100447.41;4961341;28;123589;-66
2022/11/09 00:32:54;;;;;;;4.10;1.48;;;;;;;17.58;54.37;100447.41;4951815;28;123909;-66
2022/11/09 00:35:21;;;;;;;3.92;1.58;;;;;;;17.58;54.52;100446.56;4951886;28;119208;-66
2022/11/09 00:37:48;;;;;;;4.28;1.63;;;;;;;17.57;54.58;100440.31;4949429;28;118874;-66
2022/11/09 00:40:15;;;;;;;4.47;1.48;;;;;;;17.57;54.59;100440.31;4952193;28;124033;-66
2022/11/09 00:42:42;;;;;;;3.75;1.65;;;;;;;17.57;54.51;100445.69;4969062;28;121982;-65
2022/11/09 00:45:09;;;;;;;4.88;1.80;;;;;;;17.58;54.58;100442.03;4962482;28;119908;-66
2022/11/09 00:47:36;;;;;;;5.03;1.70;;;;;;;17.58;54.62;100443.88;4963591;28;118365;-66
2022/11/09 00:50:04;;;;;;;4.38;1.40;;;;;;;17.59;54.69;100451.75;4977383;28;123270;-66
2022/11/09 00:52:31;;;;;;;4.35;1.42;;;;;;;17.59;54.67;100449.09;4958053;28;124118;-66
2022/11/09 00:54:59;;;;;;;2.67;1.55;;;;;;;17.60;54.92;100450.81;4959203;28;119354;-65
2022/11/09 00:57:26;;;;;;;5.75;1.90;;;;;;;17.61;54.94;100440.94;4964075;28;118375;-66
2022/11/09 00:59:53;;;;;;;4.78;1.58;;;;;;;17.63;55.09;100445.22;4950866;28;124774;-66
2022/11/09 01:02:20;;;;;;;4.47;1.58;;;;;;;17.65;54.78;100442.38;4959712;28;123958;-66
2022/11/09 01:04:49;;;;;;;5.15;1.80;;;;;;;17.66;54.86;100450.31;4955323;28;119259;-66
2022/11/09 01:07:16;;;;;;;3.55;1.50;;;;;;;17.69;54.75;100455.41;4957227;28;119494;-66
2022/11/09 01:09:43;;;;;;;3.92;1.60;;;;;;;17.69;54.87;100450.06;4954022;28;124688;-66
2022/11/09 01:12:10;;;;;;;5.38;1.63;;;;;;;17.70;54.59;100451.75;4955388;28;123755;-66
2022/11/09 01:14:37;;;;;;;3.92;1.60;;;;;;;17.69;54.67;100455.41;4963250;28;119524;-66
2022/11/09 01:17:04;;;;;;;4.55;1.30;;;;;;;17.68;54.72;100452.84;4957608;28;118802;-66
2022/11/09 01:19:31;;;;;;;5.43;1.60;;;;;;;17.67;54.80;100456.53;4957747;28;124106;-66
2022/11/09 01:21:58;;;;;;;4.85;1.80;;;;;;;17.66;54.80;100449.47;4954883;28;123908;-66
2022/11/09 01:24:27;;;;;;;5.25;1.55;;;;;;;17.64;54.70;100457.59;4958064;28;118176;-65
2022/11/09 01:26:54;;;;;;;3.70;1.60;;;;;;;17.63;54.78;100455.91;4958417;28;119230;-66
2022/11/09 01:29:21;;;;;;;5.65;1.42;;;;;;;17.60;54.80;100450.81;4961372;28;124621;-66
2022/11/09 01:31:48;;;;;;;3.45;1.48;;;;;;;17.58;54.75;100452.75;4955488;28;124039;-66
2022/11/09 01:34:16;;;;;;;4.95;2.10;;;;;;;17.56;54.69;100460.06;4957953;28;119447;-66
2022/11/09 01:36:43;;;;;;;3.80;1.50;;;;;;;17.53;54.92;100457.63;4965216;28;118056;-66
2022/11/09 01:39:10;;;;;;;2.97;1.65;;;;;;;17.50;54.83;100465.94;4963835;28;123582;-66
2022/11/09 01:41:37;;;;;;;5.25;1.50;;;;;;;17.47;55.13;100466.16;4958902;28;123753;-66
2022/11/09 01:44:10;;;;;;;4.13;1.50;;;;;;;17.45;55.12;100468.94;4962323;28;118650;-66
2022/11/09 01:46:51;;;;;;;5.03;1.50;;;;;;;17.42;54.90;100463.88;4956897;28;119698;-66
2022/11/09 01:49:42;;;;;;;4.35;1.52;;;;;;;17.40;55.06;100464.94;4974365;28;123097;-66
2022/11/09 01:52:18;;;;;;;4.32;1.65;;;;;;;17.37;55.05;100459.84;4958340;28;124068;-66
2022/11/09 01:54:50;;;;;;;6.13;1.70;;;;;;;17.34;55.15;100454.72;4950829;28;118418;-66
2022/11/09 01:57:40;;;;;;;3.95;1.30;;;;;;;17.32;55.05;100463.72;4959638;28;118906;-66
2022/11/09 02:00:12;;;;;;;6.65;1.63;;;;;;;17.32;55.23;100463.72;4947189;28;124691;-66
2022/11/09 02:02:44;;;;;;;4.40;1.70;;;;;;;17.30;55.31;100460.31;4961832;28;123401;-66
2022/11/09 02:05:17;;;;;;;5.00;1.73;;;;;;;17.29;55.05;100453.28;4951849;28;118082;-66
2022/11/09 02:07:48;;;;;;;3.90;1.40;;;;;;;17.28;55.22;100467.63;4951344;28;119120;-66
2022/11/09 02:10:33;;;;;;;3.80;1.48;;;;;;;17.25;55.28;100457.19;4953346;28;123901;-65
2022/11/09 02:13:01;;;;;;;3.75;1.67;;;;;;;17.25;55.33;100451.81;4955636;28;124382;-66
2022/11/09 02:15:35;;;;;;;7.25;1.75;;;;;;;17.24;55.30;100452.78;4954694;28;117563;-66
2022/11/09 02:18:09;;;;;;;3.65;1.50;;;;;;;17.22;54.92;100446.69;4971494;28;118524;-66
2022/11/09 02:20:47;;;;;;;5.07;1.45;;;;;;;17.21;55.22;100460.19;4975920;28;122629;-66
2022/11/09 02:23:15;;;;;;;6.47;1.73;;;;;;;17.20;55.11;100467.38;4960104;28;123731;-66
2022/11/09 02:25:47;;;;;;;5.05;1.67;;;;;;;17.18;55.27;100466.66;4955187;28;118277;-66
2022/11/09 02:28:16;;;;;;;2.83;1.42;;;;;;;17.17;55.27;100464.94;4961427;28;118922;-66
2022/11/09 02:30:48;;;;;;;5.50;1.60;;;;;;;17.17;55.47;100469.44;4972196;28;123451;-66
2022/11/09 02:33:15;;;;;;;3.33;1.30;;;;;;;17.14;55.21;100467.88;4968187;28;123017;-66
2022/11/09 02:35:43;;;;;;;3.75;1.58;;;;;;;17.13;55.23;100463.47;4957370;28;119500;-66
2022/11/09 02:38:12;;;;;;;3.80;1.27;;;;;;;17.12;55.37;100467.13;4972369;28;118276;-66
2022/11/09 02:40:42;;;;;;;4.82;1.40;;;;;;;17.11;55.41;100465.44;4956249;28;124051;-66
2022/11/09 02:43:13;;;;;;;4.57;1.55;;;;;;;17.09;55.47;100472.72;4954493;28;122980;-66
2022/11/09 02:45:40;;;;;;;6.20;1.40;;;;;;;17.09;55.24;100475.41;4949212;28;118152;-66
2022/11/09 02:48:07;;;;;;;5.32;1.58;;;;;;;17.07;55.50;100461.31;4959147;28;119679;-66
2022/11/09 02:50:36;;;;;;;5.60;1.80;;;;;;;17.06;55.21;100473.81;4975143;28;124027;-66
2022/11/09 02:53:05;;;;;;;5.40;1.73;;;;;;;17.07;55.46;100482.69;4943643;28;123115;-66
2022/11/09 02:55:35;;;;;;;3.75;1.30;;;;;;;17.07;55.35;100480.03;4952696;28;119094;-66
2022/11/09 02:58:02;;;;;;;5.78;1.40;;;;;;;17.08;55.50;100479.03;4966923;28;120682;-66
2022/11/09 03:00:29;;;;;;;5.68;1.80;;;;;;;17.09;55.40;100470.06;4951575;28;123368;-65
2022/11/09 03:02:56;;;;;;;4.53;1.30;;;;;;;17.09;55.39;100457.53;4972610;28;123662;-66
2022/11/09 03:05:25;;;;;;;4.78;1.40;;;;;;;17.10;55.51;100458.38;4953731;28;119037;-66
2022/11/09 03:07:52;;;;;;;7.43;1.50;;;;;;;17.12;55.39;100461.75;4952558;28;118553;-66
2022/11/09 03:10:22;;;;;;;6.53;1.45;;;;;;;17.11;55.37;100460.91;4972484;28;122867;-66
2022/11/09 03:12:49;;;;;;;6.78;1.70;;;;;;;17.13;55.25;100458.13;4957408;28;123243;-66
2022/11/09 03:15:17;;;;;;;6.78;1.60;;;;;;;17.14;55.27;100443.78;4955644;28;119712;-66
2022/11/09 03:17:45;;;;;;;5.43;1.33;;;;;;;17.16;55.15;100447.19;4954158;28;118065;-66
2022/11/09 03:20:13;;;;;;;5.05;1.30;;;;;;;17.18;55.21;100453.28;4952547;28;124273;-66
2022/11/09 03:22:41;;;;;;;6.68;1.30;;;;;;;17.19;55.03;100457.63;4951359;28;123056;-66
2022/11/09 03:25:08;;;;;;;6.50;1.20;;;;;;;17.20;54.98;100459.34;4973346;28;119218;-66
2022/11/09 03:27:35;;;;;;;4.00;1.35;;;;;;;17.21;55.06;100466.41;4957515;28;118640;-66
2022/11/09 03:30:04;;;;;;;4.22;1.27;;;;;;;17.23;55.01;100480.50;4952454;28;123254;-66
2022/11/09 03:32:31;;;;;;;5.22;1.10;;;;;;;17.24;54.88;100476.88;4953611;28;123555;-66
2022/11/09 03:34:58;;;;;;;6.20;1.15;;;;;;;17.26;55.02;100500.84;4954614;28;118341;-65
2022/11/09 03:37:25;;;;;;;3.67;1.20;;;;;;;17.26;54.92;100493.66;4957105;28;118785;-66
2022/11/09 03:39:52;;;;;;;7.40;1.30;;;;;;;17.27;54.85;100498.06;4961624;28;123302;-66
2022/11/09 03:42:19;;;;;;;2.83;1.20;;;;;;;17.28;54.90;100497.06;4965162;28;124850;-66
2022/11/09 03:44:46;;;;;;;6.97;1.42;;;;;;;17.27;54.88;100503.41;4960368;28;119446;-65
2022/11/09 03:47:14;;;;;;;5.45;1.17;;;;;;;17.27;55.04;100510.56;4957021;28;119985;-66
2022/11/09 03:49:41;;;;;;;4.43;1.60;;;;;;;17.26;54.67;100512.41;4968172;28;123468;-66
2022/11/09 03:52:08;;;;;;;8.43;1.60;;;;;;;17.26;55.02;100522.25;4968913;28;123247;-66
2022/11/09 03:54:35;;;;;;;7.57;1.60;;;;;;;17.26;54.88;100516.91;4964577;28;118444;-66
2022/11/09 03:57:02;;;;;;;7.18;1.30;;;;;;;17.25;54.96;100526.75;4955562;28;117704;-66
2022/11/09 03:59:29;;;;;;;5.35;1.20;;;;;;;17.25;54.99;100529.44;4956086;28;123962;-65
2022/11/09 04:01:56;;;;;;;6.88;1.40;;;;;;;17.24;54.82;100535.75;4958778;28;123654;-66
2022/11/09 04:04:23;;;;;;;6.47;1.50;;;;;;;17.23;54.95;100534.03;4956375;28;119135;-67
2022/11/09 04:06:50;;;;;;;5.18;1.30;;;;;;;17.20;55.02;100528.94;4957231;28;119105;-66
2022/11/09 04:09:17;;;;;;;6.40;1.42;;;;;;;17.21;55.06;100529.78;4959989;28;123733;-66
2022/11/09 04:11:44;;;;;;;7.45;1.45;;;;;;;17.20;55.04;100534.28;4958080;28;123586;-66
2022/11/09 04:14:11;;;;;;;4.70;1.58;;;;;;;17.20;54.89;100533.44;4952938;28;119647;-66
2022/11/09 04:16:38;;;;;;;8.18;1.60;;;;;;;17.19;55.03;100534.41;4957354;28;119387;-66
2022/11/09 04:19:05;;;;;;;5.78;1.30;;;;;;;17.18;54.97;100541.59;4956438;28;123920;-67
2022/11/09 04:21:33;;;;;;;10.40;1.65;;;;;;;17.17;55.17;100539.88;4955047;28;124826;-66
2022/11/09 04:24:00;;;;;;;6.55;1.20;;;;;;;17.16;55.01;100535.50;4951994;28;119061;-66
2022/11/09 04:26:26;;;;;;;7.95;1.60;;;;;;;17.14;54.93;100545.47;4954434;28;118823;-66
2022/11/09 04:28:53;;;;;;;5.22;1.42;;;;;;;17.15;55.22;100546.31;4955500;28;125455;-66
2022/11/09 04:31:20;;;;;;;7.15;1.77;;;;;;;17.15;55.11;100541.81;4952616;28;123999;-66
2022/11/09 04:33:54;;;;;;;8.35;1.52;;;;;;;17.13;55.15;100549.97;4951237;28;121264;-67
2022/11/09 04:36:21;;;;;;;5.03;1.23;;;;;;;17.13;55.02;100554.47;4956076;28;119037;-67
2022/11/09 04:38:49;;;;;;;8.18;1.30;;;;;;;17.12;55.08;100558.09;4951353;28;124960;-66
2022/11/09 04:41:16;;;;;;;9.02;1.48;;;;;;;17.09;55.21;100558.34;4960127;28;124534;-67
2022/11/09 04:43:43;;;;;;;9.73;1.67;;;;;;;17.07;55.14;100561.16;4954426;28;119534;-66
2022/11/09 04:46:10;;;;;;;6.60;1.50;;;;;;;17.05;55.24;100551.53;4951390;28;119481;-66
2022/11/09 04:48:37;;;;;;;9.25;1.55;;;;;;;17.03;55.20;100558.84;4961844;28;123887;-66
2022/11/09 04:51:06;;;;;;;9.30;1.65;;;;;;;16.99;55.28;100557.34;4962254;28;123795;-67
2022/11/09 04:53:34;;;;;;;6.00;1.38;;;;;;;16.95;55.24;100555.88;4956828;28;119167;-66
2022/11/09 04:56:03;;;;;;;7.55;1.38;;;;;;;16.90;55.25;100565.13;4949413;28;119448;-67
2022/11/09 04:58:30;;;;;;;5.40;1.13;;;;;;;16.88;55.37;100564.38;4953415;28;124263;-67
2022/11/09 05:01:02;;;;;;;8.52;1.55;;;;;;;16.85;55.49;100572.63;4971385;28;121905;-66
2022/11/09 05:03:30;;;;;;;5.57;1.50;;;;;;;16.82;55.54;100567.53;4950181;28;119742;-67
2022/11/09 05:05:57;;;;;;;5.00;1.30;;;;;;;16.80;55.50;100569.44;4953942;28;118727;-67
2022/11/09 05:08:24;;;;;;;4.63;1.50;;;;;;;16.77;55.66;100563.47;4971175;28;123455;-67
2022/11/09 05:10:56;;;;;;;5.50;1.52;;;;;;;16.74;55.62;100569.88;4956674;28;124647;-66
2022/11/09 05:13:23;;;;;;;7.50;1.58;;;;;;;16.72;55.82;100566.47;4948549;28;119935;-67
2022/11/09 05:15:50;;;;;;;4.22;1.40;;;;;;;16.71;55.88;100565.63;4959695;28;119026;-66
2022/11/09 05:18:17;;;;;;;8.27;1.67;;;;;;;16.68;55.92;100559.66;4968353;28;123014;-66
2022/11/09 05:20:44;;;;;;;7.97;1.38;;;;;;;16.64;55.93;100553.69;4970835;28;122945;-67
2022/11/09 05:25:57;;;;;;;6.75;1.85;;;;;;;16.59;55.94;100555.00;4947882;28;119913;-67
2022/11/09 05:28:24;;;;;;;7.88;1.65;;;;;;;16.55;55.82;100555.22;4959762;28;124040;-66
2022/11/09 05:30:51;;;;;;;6.50;1.50;;;;;;;16.53;56.05;100557.16;4949490;28;123649;-66
2022/11/09 05:33:18;;;;;;;8.63;1.52;;;;;;;16.51;56.21;100551.06;4951337;28;119770;-66
2022/11/09 05:35:45;;;;;;;9.13;1.77;;;;;;;16.48;56.24;100543.28;4950368;28;119247;-66
2022/11/09 05:38:12;;;;;;;8.07;1.48;;;;;;;16.47;56.36;100552.25;4969359;28;122987;-67
2022/11/09 05:40:39;;;;;;;6.00;1.40;;;;;;;16.46;56.41;100552.38;4953625;28;124429;-67
2022/11/09 05:43:06;;;;;;;7.18;1.50;;;;;;;16.43;56.56;100556.13;4967900;28;118682;-66
2022/11/09 05:45:33;;;;;;;6.88;1.40;;;;;;;16.41;56.66;100558.06;4957100;28;118965;-66
2022/11/09 05:48:11;;;;;;;7.60;1.65;;;;;;;16.40;56.46;100556.34;4954172;28;123608;-66
2022/11/09 05:50:40;;;;;;;7.35;1.30;;;;;;;16.38;56.50;100555.63;4954092;28;124557;-66
2022/11/09 05:53:22;;;;;;;5.97;1.42;;;;;;;16.36;56.48;100560.22;4954560;28;119654;-66
2022/11/09 05:55:49;;;;;;;7.28;1.40;;;;;;;16.35;56.59;100563.88;4955678;28;118924;-67
2022/11/09 05:58:17;;;;;;;3.80;1.10;;;;;;;16.31;56.74;100562.38;4958360;28;123896;-67
2022/11/09 06:00:44;;;;;;;6.40;1.42;;;;;;;16.28;56.63;100555.44;4960360;28;123576;-66
2022/11/09 06:03:11;;;;;;;3.67;1.52;;;;;;;16.29;56.70;100558.97;4957356;28;119944;-66
2022/11/09 06:05:39;;;;;;;5.75;1.52;;;;;;;16.27;56.57;100566.25;4948138;28;118673;-66
2022/11/09 06:08:09;;;;;;;6.00;1.50;;;;;;;16.24;56.70;100562.00;4974411;28;123434;-66
2022/11/09 06:10:36;;;;;;;7.82;1.73;;;;;;;16.21;56.79;100561.38;4957118;28;123811;-66
2022/11/09 06:13:04;;;;;;;7.85;1.70;;;;;;;16.19;56.69;100574.00;4951989;28;121051;-66
2022/11/09 06:15:31;;;;;;;7.78;1.58;;;;;;;16.15;56.79;100560.84;4962004;28;120238;-66
2022/11/09 06:17:58;;;;;;;5.80;1.20;;;;;;;16.14;56.96;100567.16;4953876;28;124233;-66
2022/11/09 06:20:26;;;;;;;5.80;1.50;;;;;;;16.12;56.88;100569.09;4956371;28;123748;-67
2022/11/09 06:22:55;;;;;;;6.75;1.45;;;;;;;16.11;57.02;100578.06;4956704;28;119161;-66
2022/11/09 06:25:30;;;;;;;7.18;1.55;;;;;;;16.09;57.13;100571.13;4956893;28;118388;-66
2022/11/09 06:27:58;;;;;;;5.57;1.70;;;;;;;16.07;57.13;100581.94;4957632;28;124093;-66
2022/11/09 06:30:25;;;;;;;6.82;1.73;;;;;;;16.06;57.20;100574.88;4958763;28;122896;-67
2022/11/09 06:33:00;;;;;;;4.93;1.30;;;;;;;16.05;57.23;100589.19;4958940;28;119566;-66
2022/11/09 06:35:28;;;;;;;6.15;1.42;;;;;;;16.05;57.20;100583.84;4951725;28;119040;-66
2022/11/09 06:37:59;;;;;;;5.70;1.60;;;;;;;16.05;57.23;100589.19;4954751;28;123978;-66
2022/11/09 06:40:27;;;;;;;6.72;1.40;;;;;;;16.04;57.17;100592.81;4961031;28;124010;-67
2022/11/09 06:42:58;;;;;;;8.65;1.73;;;;;;;16.04;57.16;100600.84;4949408;28;119216;-67
2022/11/09 06:45:27;;;;;;;7.18;1.40;;;;;;;16.02;57.30;100597.44;4957317;28;119445;-67
2022/11/09 06:47:58;;;;;;;8.95;1.80;;;;;;;16.00;57.33;100596.69;4954338;28;123762;-67
2022/11/09 06:50:27;;;;;;;6.85;1.50;;;;;;;15.99;57.36;100599.47;4955226;28;123920;-67
2022/11/09 06:53:00;;;;;;;6.53;1.70;;;;;;;15.97;57.27;100602.22;4958647;28;119584;-67
2022/11/09 06:55:27;;;;;;;7.55;1.70;;;;;;;15.95;57.36;100598.81;4949679;28;117904;-67
2022/11/09 06:57:55;;;;;;;7.18;1.30;;;;;;;15.94;57.35;100608.66;4951373;28;123787;-67
2022/11/09 07:00:24;;;;;;;6.70;1.60;;;;;;;15.92;57.41;100604.41;4949728;28;123763;-67
2022/11/09 07:02:51;;;;;;;8.43;1.60;;;;;;;15.90;57.42;100606.34;4953313;28;120824;-67
2022/11/09 07:05:18;;;;;;;5.00;1.65;;;;;;;15.89;57.54;100615.28;4956567;28;119805;-67
2022/11/09 07:07:45;;;;;;;8.93;1.90;;;;;;;15.88;57.51;100618.91;4959760;28;123304;-66
2022/11/09 07:10:12;;;;;;;8.55;1.98;;;;;;;15.86;57.65;100615.50;4949372;28;124031;-67
2022/11/09 07:12:40;;;;;;;5.90;1.50;;;;;;;15.85;57.80;100609.31;4955306;28;120030;-67
2022/11/09 07:15:07;;;;;;;6.20;2.10;;;;;;;15.85;57.83;100608.47;4960656;28;118785;-68
2022/11/09 07:17:35;;;;;;;4.88;1.50;;;;;;;15.83;57.73;100610.41;4957653;28;123972;-67
2022/11/09 07:20:03;;;;;;;7.45;2.00;;;;;;;15.83;57.80;100621.06;4963691;28;123715;-67
2022/11/09 07:22:30;;;;;;;4.80;1.42;;;;;;;15.81;57.95;100623.00;4955146;28;119891;-67
2022/11/09 07:24:57;;;;;;;5.07;1.73;;;;;;;15.81;57.98;100617.66;4952694;28;119055;-67
2022/11/09 07:27:25;;;;;;;10.05;1.90;;;;;;;15.81;57.99;100617.66;4954387;28;123507;-67
2022/11/09 07:29:54;;;;;;;7.47;1.70;;;;;;;15.81;58.07;100631.00;4950269;28;124001;-67
2022/11/09 07:32:21;;;;;;;8.60;1.52;;;;;;;15.82;58.05;100630.03;4963055;28;118641;-67
2022/11/09 07:35:08;;;;;;;8.63;1.70;;;;;;;15.81;57.92;100634.53;4967175;28;117861;-67
2022/11/09 07:37:38;;;;;;;6.45;1.58;;;;;;;15.80;57.93;100637.31;4959236;28;124658;-67
2022/11/09 07:40:07;;;;;;;5.88;1.30;;;;;;;15.80;58.15;100637.31;4962440;28;123534;-67
2022/11/09 07:42:37;;;;;;;7.45;1.48;;;;;;;15.79;58.09;100635.63;4959024;28;118624;-68
2022/11/09 07:45:06;;;;;;;9.93;1.63;;;;;;;15.80;58.13;100638.16;4949745;28;119215;-68
2022/11/09 07:47:38;;;;;;;8.63;1.70;;;;;;;15.81;58.26;100644.38;4954808;28;124251;-69
2022/11/09 07:50:06;;;;;;;7.47;1.50;;;;;;;15.82;58.30;100638.06;4949008;28;122078;-68
2022/11/09 07:52:33;;;;;;;7.60;1.40;;;;;;;15.83;58.25;100637.94;4958043;28;120330;-68
2022/11/09 07:55:00;;;;;;;8.88;1.73;;;;;;;15.85;58.21;100641.38;4954253;28;119795;-67
2022/11/09 07:57:27;;;;;;;6.15;1.50;;;;;;;15.89;58.19;100647.34;4952424;28;123789;-68
2022/11/09 07:59:54;;;;;;;7.55;1.63;;;;;;;15.88;58.35;100646.50;4958428;28;124475;-68
2022/11/09 08:02:22;;;;;;;9.15;1.67;;;;;;;15.91;58.29;100650.75;4958551;28;119512;-68
2022/11/09 08:04:49;;;;;;;6.07;1.60;;;;;;;15.93;58.29;100648.84;4965555;28;116730;-68
2022/11/09 08:07:16;;;;;;;7.60;1.50;;;;;;;15.94;58.31;100655.91;4967139;28;123860;-68
2022/11/09 08:09:43;;;;;;;8.10;1.60;;;;;;;15.98;58.38;100657.38;4965885;28;123812;-68
2022/11/09 08:12:10;;;;;;;7.90;1.50;;;;;;;15.99;58.18;100653.72;4961375;28;119858;-68
2022/11/09 08:14:37;;;;;;;7.43;1.50;;;;;;;15.99;58.08;100653.72;4965111;28;119409;-68
2022/11/09 08:17:04;;;;;;;9.07;1.70;;;;;;;16.01;58.04;100662.53;4966435;28;124877;-68
2022/11/09 08:19:31;;;;;;;5.88;1.67;;;;;;;16.01;58.12;100657.19;4966882;28;123611;-68
2022/11/09 08:21:59;;;;;;;7.70;1.40;;;;;;;16.03;58.44;100659.72;4945861;28;118527;-68
2022/11/09 08:24:26;;;;;;;8.30;1.80;;;;;;;16.04;58.34;100662.28;4961610;28;119359;-68
2022/11/09 08:26:54;;;;;;;7.13;1.83;;;;;;;16.05;58.22;100669.34;4966567;28;124443;-68
2022/11/09 08:29:21;;;;;;;5.30;1.45;;;;;;;16.08;58.39;100668.25;4959727;28;123806;-68
2022/11/09 08:31:49;;;;;;;7.00;1.65;;;;;;;16.08;58.22;100679.78;4966000;28;119074;-68
2022/11/09 08:34:17;;;;;;;7.70;1.80;;;;;;;16.10;58.24;100688.56;4966714;28;119042;-68
2022/11/09 08:36:44;;;;;;;7.00;1.83;;;;;;;16.13;58.22;100688.34;4957788;28;124091;-68
2022/11/09 08:39:11;;;;;;;7.25;1.38;;;;;;;16.17;58.16;100688.16;4953205;28;124032;-68
2022/11/09 08:41:38;;;;;;;7.80;1.90;;;;;;;16.19;58.29;100691.56;4962242;28;120976;-68
2022/11/09 08:44:05;;;;;;;8.43;1.55;;;;;;;16.21;58.17;100689.63;4963548;28;119835;-68
2022/11/09 08:46:32;;;;;;;4.75;1.60;;;;;;;16.24;58.25;100684.06;4958815;28;123374;-67
2022/11/09 08:49:06;;;;;;;8.20;1.70;;;;;;;16.25;58.16;100686.63;4962796;28;123566;-68
2022/11/09 08:51:33;;;;;;;7.03;1.50;;;;;;;16.29;58.20;100687.25;4981965;28;119181;-68
2022/11/09 08:54:01;;;;;;;7.47;1.92;;;;;;;16.32;58.11;100687.03;4965835;28;119058;-68
2022/11/09 08:56:28;;;;;;;5.45;1.35;;;;;;;16.34;58.06;100690.47;4968099;28;124849;-68
2022/11/09 08:58:55;;;;;;;5.97;1.60;;;;;;;16.36;58.10;100683.19;4969458;28;124022;-68
2022/11/09 09:01:24;;;;;;;12.57;2.00;;;;;;;16.40;58.02;100684.66;4968595;28;119086;-68
2022/11/09 09:03:51;;;;;;;9.52;1.77;;;;;;;16.45;58.08;100682.53;4965335;28;117822;-68
2022/11/09 09:06:18;;;;;;;5.30;1.45;;;;;;;16.48;57.79;100687.66;4964597;28;124346;-68
2022/11/09 09:08:45;;;;;;;7.35;1.55;;;;;;;16.53;57.97;100690.81;4966583;28;124719;-68
2022/11/09 09:11:12;;;;;;;5.65;1.65;;;;;;;16.60;57.80;100690.41;4966415;28;119629;-68
2022/11/09 09:13:39;;;;;;;7.75;1.65;;;;;;;16.63;57.53;100690.16;4966340;28;118940;-68
2022/11/09 09:16:14;;;;;;;7.00;1.42;;;;;;;16.67;57.54;100691.63;4962412;28;123736;-68
2022/11/09 09:18:41;;;;;;;6.40;1.17;;;;;;;16.71;57.41;100690.47;4965508;28;124708;-68
2022/11/09 09:21:09;;;;;;;6.80;1.52;;;;;;;16.76;57.41;100690.97;4961616;28;119387;-68
2022/11/09 09:23:36;;;;;;;6.85;1.55;;;;;;;16.79;57.36;100690.75;4953022;28;117603;-68
2022/11/09 09:26:04;;;;;;;8.90;1.60;;;;;;;16.85;57.30;100690.31;4953214;28;124089;-67
2022/11/09 09:28:31;;;;;;;9.68;1.80;;;;;;;16.92;57.31;100696.94;4953198;28;124904;-68
2022/11/09 09:30:59;;;;;;;10.63;1.83;;;;;;;16.98;57.16;100702.81;4966443;28;120083;-68
2022/11/09 09:33:27;;;;;;;6.53;1.75;;;;;;;17.03;57.10;100692.63;4969308;28;119789;-68
2022/11/09 09:35:56;;;;;;;6.10;1.60;;;;;;;17.07;56.93;100694.09;4968392;28;123897;-68
2022/11/09 09:38:24;;;;;;;4.68;1.27;;;;;;;17.14;57.07;100706.06;4968088;28;123737;-68
2022/11/09 09:40:55;;;;;;;3.88;1.52;;;;;;;17.20;56.68;100699.38;4968214;28;119178;-68
2022/11/09 09:43:40;;;;;;;5.70;1.50;;;;;;;17.22;56.36;100709.00;4967318;28;119264;-68
2022/11/09 09:46:24;;;;;;;7.95;1.48;;;;;;;17.23;56.53;100705.34;4966837;28;123918;-68
2022/11/09 09:48:57;;;;;;;8.40;1.58;;;;;;;17.25;56.33;100708.78;4968082;28;124337;-68
2022/11/09 09:51:34;;;;;;;7.47;1.90;;;;;;;17.29;56.36;100710.25;4968074;28;118185;-68
2022/11/09 09:54:18;;;;;;;6.63;1.50;;;;;;;17.36;56.23;100721.31;4966349;28;118693;-68
2022/11/09 09:56:48;;;;;;;10.48;1.70;;;;;;;17.43;56.20;100721.72;4957638;28;124245;-69
2022/11/09 09:59:41;;;;;;;6.88;1.70;;;;;;;17.48;56.14;100731.13;4968603;28;125354;-68
2022/11/09 10:02:29;;;;;;;9.20;1.70;;;;;;;17.50;55.63;100729.19;4948066;28;118186;-68
2022/11/09 10:04:59;;;;;;;7.70;1.58;;;;;;;17.53;55.71;100738.78;4957695;28;118636;-68
2022/11/09 10:08:08;;;;;;;8.57;2.03;;;;;;;17.53;55.70;100733.44;4969288;28;123927;-68
2022/11/09 10:11:06;;;;;;;8.68;1.60;;;;;;;17.56;55.60;100727.84;4959999;28;126069;-68
2022/11/09 10:14:02;;;;;;;7.03;1.67;;;;;;;17.59;55.51;100732.97;4967962;28;119198;-68
2022/11/09 10:16:36;;;;;;;8.43;2.10;;;;;;;17.65;55.46;100727.16;4947002;28;118929;-68
2022/11/09 10:19:29;;;;;;;5.67;1.40;;;;;;;17.73;55.53;100731.06;4966597;28;124934;-68
2022/11/09 10:22:06;;;;;;;11.15;1.88;;;;;;;17.80;55.01;100738.53;4966284;28;123711;-68
2022/11/09 10:24:42;;;;;;;9.23;1.92;;;;;;;17.88;55.08;100743.31;4967007;28;120508;-68
2022/11/09 10:27:35;;;;;;;5.70;1.23;;;;;;;17.95;54.92;100735.63;4974141;28;119081;-68
2022/11/09 10:30:13;;;;;;;5.95;1.45;;;;;;;18.01;54.74;100736.03;4962674;28;123945;-68
2022/11/09 10:32:43;;;;;;;6.80;1.50;;;;;;;18.07;54.82;100737.38;4958596;28;123949;-68
2022/11/09 10:35:20;;;;;;;7.38;1.52;;;;;;;18.12;54.34;100728.94;4965753;28;119631;-68
2022/11/09 10:37:51;;;;;;;8.85;1.48;;;;;;;18.16;54.25;100747.38;4957001;28;118778;-68
2022/11/09 10:40:30;;;;;;;7.50;1.40;;;;;;;18.20;54.22;100737.28;4965435;28;123905;-68
2022/11/09 10:43:15;;;;;;;7.78;1.75;;;;;;;18.27;54.16;100733.09;4969192;28;123652;-68
2022/11/09 10:46:06;;;;;;;6.35;1.50;;;;;;;18.36;53.90;100743.09;4972809;28;119714;-68
2022/11/09 10:48:53;;;;;;;7.63;1.30;;;;;;;18.43;53.67;100747.00;4987211;28;120194;-68
2022/11/09 10:51:41;;;;;;;6.78;1.40;;;;;;;18.46;53.25;100749.44;4982170;28;126365;-68
2022/11/09 10:54:34;;;;;;;6.65;1.30;;;;;;;18.47;53.08;100740.41;4970404;28;124745;-68
2022/11/09 10:57:22;;;;;;;6.00;1.60;;;;;;;18.53;53.24;100743.59;4969499;28;120473;-68
2022/11/09 11:00:19;;;;;;;7.85;1.33;;;;;;;18.56;53.10;100738.00;4969539;28;119749;-68
2022/11/09 11:03:23;;;;;;;5.75;1.20;;;;;;;18.61;52.92;100741.13;4969595;28;124977;-68
2022/11/09 11:06:17;;;;;;;6.78;1.50;;;;;;;18.65;52.59;100747.97;4956032;28;124350;-68
2022/11/09 11:09:06;;;;;;;9.60;1.55;;;;;;;18.64;52.55;100746.25;4969509;28;119819;-68
2022/11/09 11:12:14;;;;;;;8.13;1.38;;;;;;;18.62;52.56;100753.59;4968529;28;119687;-68
2022/11/09 11:14:59;;;;;;;6.93;1.20;;;;;;;18.63;52.43;100741.88;4954575;28;124901;-68
2022/11/09 11:17:45;;;;;;;7.80;1.50;;;;;;;18.63;52.21;100756.16;4964862;28;124525;-68
2022/11/09 11:20:36;;;;;;;8.88;1.60;;;;;;;18.63;52.02;100750.78;4962314;28;121713;-68
2022/11/09 11:23:24;;;;;;;6.05;1.35;;;;;;;18.61;51.90;100758.09;4956651;28;119893;-68
2022/11/09 11:26:29;;;;;;;5.30;1.27;;;;;;;18.57;51.79;100767.38;4952358;28;124312;-68
2022/11/09 11:29:17;;;;;;;5.60;1.38;;;;;;;18.53;51.41;100757.00;4959885;28;124155;-68
2022/11/09 11:32:06;;;;;;;6.97;1.17;;;;;;;18.49;51.60;100759.91;4956372;28;119920;-68
2022/11/09 11:34:52;;;;;;;4.03;1.10;;;;;;;18.47;51.46;100761.03;4953269;28;119717;-68
2022/11/09 11:37:57;;;;;;;4.88;1.40;;;;;;;18.49;51.57;100769.78;4953661;28;125578;-68